Time;durP1;ratioP1;P1;durP2;ratioP2;P2;SDS_P1;SDS_P2;PMS_P1;PMS_P2;Temp;Humidity;BMP_temperature;BMP_pressure;BME280_temperature;BME280_humidity;BME280_pressure;Samples;Min_cycle;Max_cycle;Signal;HPM_P1;HPM_P2
2022/08/06 00:02:03;;;;;;;9.95;3.85;;;;;;;21.16;51.15;98842.55;1690039;84;21012;-78
2022/08/06 00:04:29;;;;;;;7.75;4.10;;;;;;;21.06;52.76;98845.02;1692905;84;21558;-80
2022/08/06 00:06:56;;;;;;;8.60;4.28;;;;;;;20.96;51.22;98841.36;1678596;84;21028;-79
2022/08/06 00:09:22;;;;;;;8.50;3.40;;;;;;;20.84;51.82;98843.91;1694152;84;20992;-79
2022/08/06 00:11:49;;;;;;;7.03;3.42;;;;;;;20.81;52.45;98844.15;1694792;84;21051;-79
2022/08/06 00:14:16;;;;;;;9.35;3.67;;;;;;;20.78;52.92;98839.06;1693410;84;21011;-80
2022/08/06 00:16:43;;;;;;;13.40;3.50;;;;;;;20.74;53.45;98833.64;1687417;85;21099;-79
2022/08/06 00:19:09;;;;;;;8.08;3.72;;;;;;;20.71;53.29;98835.64;1687297;84;21056;-79
2022/08/06 00:21:36;;;;;;;12.58;3.85;;;;;;;20.65;53.55;98840.88;1674930;84;21049;-79
2022/08/06 00:24:03;;;;;;;8.53;3.83;;;;;;;20.50;51.94;98844.59;1690482;84;21058;-79
2022/08/06 00:26:30;;;;;;;10.35;4.42;;;;;;;20.34;53.21;98843.02;1675673;84;21074;-79
2022/08/06 00:28:56;;;;;;;9.75;3.92;;;;;;;20.27;54.20;98847.02;1689052;84;21020;-79
2022/08/06 00:31:23;;;;;;;9.65;4.28;;;;;;;20.21;55.20;98846.98;1681231;84;21011;-79
2022/08/06 00:33:50;;;;;;;7.55;4.20;;;;;;;20.11;54.60;98851.66;1687708;84;21083;-80
2022/08/06 00:36:16;;;;;;;8.70;4.42;;;;;;;20.09;55.33;98846.96;1683086;84;21051;-78
2022/08/06 00:38:43;;;;;;;6.30;3.90;;;;;;;20.08;54.57;98842.66;1693363;84;21057;-79
2022/08/06 00:41:10;;;;;;;5.47;3.37;;;;;;;20.01;54.32;98841.72;1684151;84;21047;-79
2022/08/06 00:43:37;;;;;;;6.10;3.95;;;;;;;19.93;55.35;98847.16;1687161;84;21542;-79
2022/08/06 00:46:03;;;;;;;12.23;3.58;;;;;;;19.86;55.15;98845.42;1691005;84;21043;-78
2022/08/06 00:48:30;;;;;;;8.13;4.33;;;;;;;19.82;54.95;98851.37;1681657;84;21626;-79
2022/08/06 00:50:56;;;;;;;7.30;4.10;;;;;;;19.81;55.87;98851.47;1692896;84;21023;-79
2022/08/06 00:53:23;;;;;;;10.15;4.22;;;;;;;19.80;55.48;98851.11;1695973;84;21487;-79
2022/08/06 00:55:50;;;;;;;9.58;4.30;;;;;;;19.79;57.11;98854.68;1700415;83;21003;-79
2022/08/06 00:58:16;;;;;;;7.75;4.10;;;;;;;19.76;56.76;98854.91;1700084;83;21024;-79
2022/08/06 01:00:43;;;;;;;8.60;4.30;;;;;;;19.72;54.71;98853.42;1709173;83;21493;-80
2022/08/06 01:03:10;;;;;;;7.47;4.10;;;;;;;19.65;57.29;98860.36;1715386;83;21006;-79
2022/08/06 01:05:38;;;;;;;9.28;4.08;;;;;;;19.61;56.51;98854.08;1713358;83;21027;-79
2022/08/06 01:08:04;;;;;;;10.72;4.10;;;;;;;19.59;56.45;98854.17;1716716;83;21051;-80
2022/08/06 01:10:31;;;;;;;6.78;3.98;;;;;;;19.61;56.57;98851.44;1718453;83;21054;-79
2022/08/06 01:12:57;;;;;;;13.48;4.30;;;;;;;19.60;56.44;98845.33;1714887;83;21000;-79
2022/08/06 01:15:24;;;;;;;9.25;4.20;;;;;;;19.59;56.85;98855.49;1718290;83;20999;-79
2022/08/06 01:18:16;;;;;;;8.93;4.10;;;;;;;19.60;56.79;98855.04;1712940;83;21024;-79
2022/08/06 01:21:09;;;;;;;6.45;3.70;;;;;;;19.62;57.03;98863.70;1699917;83;21043;-81
2022/08/06 01:24:11;;;;;;;8.18;4.15;;;;;;;19.63;57.06;98856.98;1698690;83;21030;-79
2022/08/06 01:26:54;;;;;;;9.95;4.40;;;;;;;19.63;57.18;98849.55;1684882;83;21063;-78
2022/08/06 01:29:27;;;;;;;;;;;;;;;19.62;56.44;98854.47;1658432;84;21028;-79
2022/08/06 01:32:02;;;;;;;5.35;3.37;;;;;;;19.59;59.03;98852.86;1708489;83;20127;-80
2022/08/06 01:34:42;;;;;;;7.08;4.00;;;;;;;19.58;56.00;98856.94;1698236;83;20992;-80
2022/08/06 01:37:30;;;;;;;7.90;4.10;;;;;;;19.54;57.20;98853.65;1712622;83;21043;-79
2022/08/06 01:40:05;;;;;;;8.20;4.17;;;;;;;19.53;57.72;98846.67;1689809;83;21430;-79
2022/08/06 01:42:33;;;;;;;11.97;4.28;;;;;;;19.51;58.76;98843.77;1711630;83;21031;-83
2022/08/06 01:45:02;;;;;;;9.33;4.00;;;;;;;19.46;57.85;98854.62;1715942;83;20976;-80
2022/08/06 01:47:32;;;;;;;7.97;3.90;;;;;;;19.43;58.04;98847.74;1717374;83;21043;-79
2022/08/06 01:50:03;;;;;;;7.92;3.72;;;;;;;19.42;56.72;98844.75;1702884;83;21019;-80
2022/08/06 01:52:38;;;;;;;7.37;3.87;;;;;;;19.42;58.32;98847.39;1706447;83;21028;-80
2022/08/06 01:55:13;;;;;;;9.73;4.00;;;;;;;19.42;58.92;98838.64;1701577;83;20994;-79
2022/08/06 01:57:50;;;;;;;7.83;4.03;;;;;;;19.48;59.08;98845.66;1714855;83;21512;-80
2022/08/06 02:00:18;;;;;;;11.03;3.87;;;;;;;19.52;58.88;98845.00;1706818;83;21055;-79
2022/08/06 02:02:47;;;;;;;6.85;4.15;;;;;;;19.54;59.93;98840.47;1716840;83;20972;-81
2022/08/06 02:05:16;;;;;;;9.53;4.58;;;;;;;19.54;60.73;98843.10;1704710;83;21067;-80
2022/08/06 02:07:47;;;;;;;8.50;4.10;;;;;;;19.55;59.63;98838.67;1709408;83;21011;-80
2022/08/06 02:10:16;;;;;;;9.15;4.30;;;;;;;19.56;59.60;98837.73;1712170;83;21047;-82
2022/08/06 02:12:46;;;;;;;9.68;4.45;;;;;;;19.55;59.81;98842.63;1701525;83;21039;-80
2022/08/06 02:15:18;;;;;;;8.38;3.65;;;;;;;19.52;60.11;98848.08;1718637;83;21039;-79
2022/08/06 02:17:58;;;;;;;7.12;4.40;;;;;;;19.51;59.42;98847.73;1700862;83;21019;-79
2022/08/06 02:20:39;;;;;;;7.20;4.28;;;;;;;19.48;59.15;98851.42;1713920;81;21623;-79
2022/08/06 02:23:11;;;;;;;7.30;4.55;;;;;;;19.41;58.77;98856.23;1698087;83;21015;-78
2022/08/06 02:25:40;;;;;;;10.18;4.37;;;;;;;19.28;59.25;98848.77;1708681;83;21020;-79
2022/08/06 02:28:09;;;;;;;9.58;4.30;;;;;;;19.15;59.28;98843.91;1698251;83;21535;-80
2022/08/06 02:30:44;;;;;;;10.78;5.08;;;;;;;19.06;60.34;98844.03;1708822;83;21059;-80
2022/08/06 02:33:12;;;;;;;8.65;4.72;;;;;;;19.03;60.29;98843.73;1718744;83;21030;-79
2022/08/06 02:35:53;;;;;;;8.83;4.37;;;;;;;19.01;61.16;98847.42;1713763;83;21467;-80
2022/08/06 02:38:48;;;;;;;10.40;5.00;;;;;;;18.97;61.02;98849.87;1690020;83;21039;-79
2022/08/06 02:41:41;;;;;;;7.53;4.60;;;;;;;18.94;60.84;98852.70;1711880;83;21007;-79
2022/08/06 02:44:25;;;;;;;9.83;4.67;;;;;;;18.91;61.17;98850.27;1709867;83;21013;-80
2022/08/06 02:47:19;;;;;;;7.25;4.37;;;;;;;18.78;60.74;98838.30;1707517;83;21100;-80
2022/08/06 02:49:51;;;;;;;7.20;4.42;;;;;;;18.69;62.40;98845.00;1713626;83;21036;-80
2022/08/06 02:52:22;;;;;;;8.50;4.67;;;;;;;18.66;63.22;98859.66;1708647;83;21515;-79
2022/08/06 02:55:03;;;;;;;13.20;4.33;;;;;;;18.57;63.51;98848.40;1710776;83;21028;-80
2022/08/06 02:57:35;;;;;;;9.68;4.58;;;;;;;18.47;61.45;98856.85;1698160;83;21527;-80
2022/08/06 03:00:07;;;;;;;7.70;4.40;;;;;;;18.44;63.05;98853.55;1699217;83;21003;-79
2022/08/06 03:02:37;;;;;;;10.35;4.70;;;;;;;18.42;64.95;98850.17;1703610;83;21184;-79
2022/08/06 03:05:07;;;;;;;10.60;4.08;;;;;;;18.41;63.17;98855.91;1698500;83;21614;-79
2022/08/06 03:07:36;;;;;;;7.28;4.17;;;;;;;18.41;63.99;98867.76;1718509;83;20992;-79
2022/08/06 03:10:03;;;;;;;8.00;4.37;;;;;;;18.41;63.90;98862.50;1700284;83;21039;-81
2022/08/06 03:12:31;;;;;;;8.95;4.25;;;;;;;18.41;64.14;98865.13;1715396;83;21031;-80
2022/08/06 03:15:01;;;;;;;7.53;4.50;;;;;;;18.43;63.86;98863.73;1698302;83;21563;-80
2022/08/06 03:17:30;;;;;;;10.93;4.22;;;;;;;18.44;64.11;98864.95;1717628;83;21132;-80
2022/08/06 03:19:58;;;;;;;8.93;4.72;;;;;;;18.46;64.42;98864.83;1684945;83;21093;-79
2022/08/06 03:22:28;;;;;;;6.62;3.87;;;;;;;18.47;64.50;98866.06;1706982;83;21031;-81
2022/08/06 03:24:55;;;;;;;6.80;3.92;;;;;;;18.50;63.81;98858.44;1720748;83;21091;-80
2022/08/06 03:27:23;;;;;;;9.18;4.40;;;;;;;18.53;63.31;98856.11;1719370;83;21597;-80
2022/08/06 03:29:51;;;;;;;6.45;4.15;;;;;;;18.51;62.80;98859.31;1720346;83;21015;-80
2022/08/06 03:32:20;;;;;;;9.85;4.85;;;;;;;18.49;63.01;98860.23;1724716;83;21031;-81
2022/08/06 03:34:48;;;;;;;9.33;5.45;;;;;;;18.45;63.10;98855.27;1724648;83;21000;-80
2022/08/06 03:37:18;;;;;;;12.98;4.67;;;;;;;18.41;64.22;98867.76;1718883;83;21039;-80
2022/08/06 03:39:46;;;;;;;8.85;4.90;;;;;;;18.41;64.51;98860.34;1719623;83;21023;-81
2022/08/06 03:42:13;;;;;;;7.47;4.40;;;;;;;18.42;63.18;98865.96;1719474;83;21063;-79
2022/08/06 03:44:41;;;;;;;8.23;4.83;;;;;;;18.42;64.50;98864.65;1718181;82;22080;-79
2022/08/06 03:47:12;;;;;;;7.20;4.22;;;;;;;18.44;63.42;98867.59;1719637;83;20996;-79
2022/08/06 03:49:52;;;;;;;7.10;4.72;;;;;;;18.45;64.79;98874.53;1722066;83;21017;-80
2022/08/06 03:52:27;;;;;;;10.35;4.58;;;;;;;18.49;65.11;98867.30;1700805;83;21539;-80
2022/08/06 03:54:58;;;;;;;7.53;4.40;;;;;;;18.52;63.66;98867.56;1717193;83;21488;-79
2022/08/06 03:57:35;;;;;;;9.53;4.90;;;;;;;18.54;63.83;98872.27;1719777;83;21508;-80
2022/08/06 04:00:05;;;;;;;8.68;4.22;;;;;;;18.56;63.77;98868.62;1669540;86;21033;-80
2022/08/06 04:02:40;;;;;;;7.20;4.37;;;;;;;18.57;62.78;98869.46;1707226;84;21001;-79
2022/08/06 04:05:10;;;;;;;9.90;4.90;;;;;;;18.57;63.50;98872.93;1697473;84;21091;-80
2022/08/06 04:07:38;;;;;;;8.13;5.05;;;;;;;18.61;64.27;98881.02;1677706;84;21056;-80
2022/08/06 04:10:07;;;;;;;9.23;4.37;;;;;;;18.63;63.47;98880.92;1706209;84;21160;-80
2022/08/06 04:12:34;;;;;;;9.43;4.70;;;;;;;18.66;63.48;98881.59;1707286;84;21119;-80
2022/08/06 04:15:01;;;;;;;6.37;4.40;;;;;;;18.68;62.07;98885.42;1684999;84;21000;-81
2022/08/06 04:17:30;;;;;;;7.95;4.15;;;;;;;18.67;63.08;98883.75;1707366;84;20988;-80
2022/08/06 04:20:00;;;;;;;10.72;4.42;;;;;;;18.70;62.83;98887.48;1719589;82;21078;-80
2022/08/06 04:22:26;;;;;;;8.03;4.78;;;;;;;18.73;63.17;98891.74;1706860;83;21037;-80
2022/08/06 04:24:53;;;;;;;12.35;4.65;;;;;;;18.77;63.17;98894.08;1715448;83;21550;-80
2022/08/06 04:27:21;;;;;;;9.45;4.10;;;;;;;18.79;62.03;98892.23;1682943;84;21024;-80
2022/08/06 04:29:49;;;;;;;10.32;5.00;;;;;;;18.81;62.02;98898.24;1686293;83;21003;-79
2022/08/06 04:32:18;;;;;;;8.85;4.80;;;;;;;18.82;61.68;98899.95;1678842;85;21020;-79
2022/08/06 04:34:46;;;;;;;8.08;4.55;;;;;;;18.85;62.87;98902.86;1687445;84;21041;-80
2022/08/06 04:37:13;;;;;;;7.10;4.20;;;;;;;18.86;61.81;98899.27;1738107;82;21002;-81
2022/08/06 04:39:41;;;;;;;11.60;5.22;;;;;;;18.92;62.00;98901.55;1718011;82;21492;-79
2022/08/06 04:42:08;;;;;;;8.30;4.80;;;;;;;18.99;62.23;98907.27;1732443;82;20983;-80
2022/08/06 04:44:36;;;;;;;6.35;4.22;;;;;;;19.06;62.37;98908.11;1739627;82;21030;-80
2022/08/06 04:47:04;;;;;;;9.40;4.28;;;;;;;19.13;61.92;98912.98;1735318;82;20991;-80
2022/08/06 04:49:31;;;;;;;10.95;4.33;;;;;;;19.22;61.90;98906.66;1733570;82;21064;-79
2022/08/06 04:51:58;;;;;;;7.67;4.67;;;;;;;19.30;61.67;98899.59;1722814;82;21479;-80
2022/08/06 04:54:25;;;;;;;7.33;4.35;;;;;;;19.37;61.40;98900.03;1734627;82;21586;-80
2022/08/06 04:56:51;;;;;;;7.42;4.40;;;;;;;19.43;61.30;98903.59;1738038;82;20944;-81
2022/08/06 04:59:18;;;;;;;8.23;4.25;;;;;;;19.51;61.09;98905.25;1731759;82;21035;-80
2022/08/06 05:01:45;;;;;;;10.15;4.75;;;;;;;19.59;61.29;98908.23;1719977;82;21546;-80
2022/08/06 05:04:11;;;;;;;7.03;4.60;;;;;;;19.68;61.38;98906.32;1724410;82;21035;-80
2022/08/06 05:06:56;;;;;;;8.78;4.45;;;;;;;19.78;61.26;98901.80;1712646;82;21025;-80
2022/08/06 05:09:26;;;;;;;11.38;4.58;;;;;;;19.86;60.90;98910.89;1718066;82;21034;-79
2022/08/06 05:11:58;;;;;;;11.35;4.70;;;;;;;19.98;60.81;98914.98;1711081;82;21005;-79
2022/08/06 05:14:30;;;;;;;14.13;4.92;;;;;;;20.04;60.13;98918.05;1707863;83;21071;-79
2022/08/06 05:16:57;;;;;;;11.78;4.90;;;;;;;20.06;59.89;98908.23;1702715;83;21008;-79
2022/08/06 05:19:52;;;;;;;14.60;5.17;;;;;;;20.16;60.64;98914.23;1721844;83;21067;-80
2022/08/06 05:22:20;;;;;;;17.70;5.75;;;;;;;20.24;59.81;98911.42;1712491;83;21529;-79
2022/08/06 05:24:47;;;;;;;13.78;5.47;;;;;;;20.32;59.99;98914.88;1735859;83;21023;-79
2022/08/06 05:27:15;;;;;;;12.05;4.97;;;;;;;20.41;60.00;98918.66;1695659;83;20991;-79
2022/08/06 05:29:42;;;;;;;9.60;5.30;;;;;;;20.50;59.57;98923.81;1719545;83;21504;-80
2022/08/06 05:32:09;;;;;;;13.98;5.50;;;;;;;20.56;59.57;98919.42;1694467;84;20979;-81
2022/08/06 05:34:35;;;;;;;14.93;5.12;;;;;;;20.63;59.51;98917.61;1680579;85;21011;-80
2022/08/06 05:37:02;;;;;;;10.82;5.05;;;;;;;20.69;59.15;98916.34;1703419;84;20947;-79
2022/08/06 05:39:29;;;;;;;10.48;4.92;;;;;;;20.75;58.96;98911.95;1709890;84;21007;-79
2022/08/06 05:41:56;;;;;;;11.70;4.87;;;;;;;20.77;59.11;98910.05;1747482;82;20971;-81
2022/08/06 05:44:24;;;;;;;11.18;5.25;;;;;;;20.80;58.75;98911.13;1705552;83;21023;-80
2022/08/06 05:46:55;;;;;;;11.05;5.20;;;;;;;20.86;58.73;98907.22;1683297;84;21030;-80
2022/08/06 05:49:29;;;;;;;7.70;4.25;;;;;;;20.95;58.84;98906.58;1688606;85;21008;-79
2022/08/06 05:52:12;;;;;;;10.58;4.75;;;;;;;21.06;59.11;98901.84;1687376;84;20970;-80
2022/08/06 05:55:02;;;;;;;13.83;5.30;;;;;;;21.19;58.33;98895.21;1719523;82;20999;-79
2022/08/06 05:57:38;;;;;;;11.95;4.90;;;;;;;21.30;57.99;98897.06;1726898;82;20971;-80
2022/08/06 06:00:12;;;;;;;9.08;5.08;;;;;;;21.37;57.86;98892.55;1739098;82;21042;-80
2022/08/06 06:02:43;;;;;;;8.18;4.60;;;;;;;21.47;57.85;98885.27;1739408;82;20916;-80
2022/08/06 06:05:11;;;;;;;8.28;4.58;;;;;;;21.56;57.43;98889.90;1717707;82;21101;-79
2022/08/06 06:07:39;;;;;;;8.33;4.60;;;;;;;21.66;57.21;98893.55;1739839;82;20991;-79
2022/08/06 06:10:08;;;;;;;10.55;4.60;;;;;;;21.77;56.98;98892.28;1718871;82;20979;-80
2022/08/06 06:12:36;;;;;;;10.82;4.70;;;;;;;21.89;56.70;98882.59;1729836;82;20975;-80
2022/08/06 06:15:07;;;;;;;10.03;4.60;;;;;;;21.99;56.33;98884.89;1716736;82;21495;-80
2022/08/06 06:18:08;;;;;;;7.87;4.20;;;;;;;22.12;55.76;98881.31;1739682;82;21460;-80
2022/08/06 06:21:11;;;;;;;5.25;3.70;;;;;;;22.20;55.66;98878.92;1728453;82;21084;-79
2022/08/06 06:23:46;;;;;;;11.75;4.75;;;;;;;22.32;55.18;98885.11;1727840;83;21133;-79
2022/08/06 06:26:22;;;;;;;17.48;4.62;;;;;;;22.44;55.11;98884.16;1715681;83;21007;-80
2022/08/06 06:29:07;;;;;;;8.40;4.30;;;;;;;22.56;54.87;98878.39;1732942;83;20964;-79
2022/08/06 06:31:40;;;;;;;9.50;4.42;;;;;;;22.65;54.53;98879.00;1727516;83;21452;-79
2022/08/06 06:34:18;;;;;;;8.95;4.17;;;;;;;22.78;54.46;98881.06;1722285;83;21542;-79
2022/08/06 06:37:15;;;;;;;7.05;4.28;;;;;;;22.91;53.95;98880.08;1721850;83;21031;-80
2022/08/06 06:39:51;;;;;;;11.00;4.53;;;;;;;23.03;53.69;98872.50;1714782;83;21049;-79
2022/08/06 06:42:25;;;;;;;8.88;3.77;;;;;;;23.17;53.47;98874.88;1715342;83;21104;-80
2022/08/06 06:45:18;;;;;;;7.30;3.80;;;;;;;23.27;52.96;98865.70;1723859;83;21002;-80
2022/08/06 06:48:01;;;;;;;5.33;3.27;;;;;;;23.39;52.58;98868.67;1717649;83;21019;-79
2022/08/06 06:50:37;;;;;;;9.53;3.62;;;;;;;23.53;52.43;98864.88;1708757;83;21569;-80
2022/08/06 06:53:05;;;;;;;8.88;3.50;;;;;;;23.69;51.71;98862.30;1711483;83;21564;-80
2022/08/06 06:55:39;;;;;;;7.42;3.50;;;;;;;23.78;51.65;98862.41;1682545;84;21068;-82
2022/08/06 06:58:34;;;;;;;9.65;3.37;;;;;;;23.94;51.37;98865.11;1695383;84;22101;-81
2022/08/06 07:01:04;;;;;;;7.55;3.40;;;;;;;24.03;50.96;98861.66;1689488;84;21619;-81
2022/08/06 07:03:33;;;;;;;9.10;3.70;;;;;;;24.15;50.53;98872.59;1696448;84;21147;-80
2022/08/06 07:06:05;;;;;;;7.80;3.40;;;;;;;24.27;50.37;98869.84;1696731;84;20992;-80
2022/08/06 07:08:37;;;;;;;5.78;3.00;;;;;;;24.36;49.06;98865.92;1676032;84;21012;-80
2022/08/06 07:11:06;;;;;;;9.65;3.52;;;;;;;24.47;48.43;98862.82;1690359;84;21007;-80
2022/08/06 07:13:33;;;;;;;5.65;3.20;;;;;;;24.56;47.67;98860.24;1693154;84;20984;-80
2022/08/06 07:16:00;;;;;;;8.00;3.33;;;;;;;24.66;48.43;98864.27;1696528;84;20968;-80
2022/08/06 07:18:28;;;;;;;5.60;3.10;;;;;;;24.77;46.79;98864.65;1676771;84;21086;-81
2022/08/06 07:20:55;;;;;;;8.90;3.25;;;;;;;24.89;46.65;98862.27;1680508;84;21060;-81
2022/08/06 07:23:23;;;;;;;7.47;3.10;;;;;;;25.01;46.10;98856.36;1658554;85;21828;-81
2022/08/06 07:25:53;;;;;;;7.78;3.25;;;;;;;25.16;45.94;98858.13;1733771;82;21069;-80
2022/08/06 07:28:25;;;;;;;6.33;3.15;;;;;;;25.27;45.42;98860.70;1727408;82;21023;-80
2022/08/06 07:30:50;;;;;;;6.80;3.00;;;;;;;25.38;45.19;98857.89;1744509;81;21015;-79
2022/08/06 07:33:17;;;;;;;9.93;3.10;;;;;;;25.48;43.25;98851.75;1725415;82;21041;-80
2022/08/06 07:35:47;;;;;;;7.15;2.90;;;;;;;25.60;44.20;98852.83;1731847;82;20975;-79
2022/08/06 07:38:17;;;;;;;4.97;3.10;;;;;;;25.70;44.48;98842.64;1677883;85;21035;-80
2022/08/06 07:40:51;;;;;;;5.12;2.90;;;;;;;25.82;44.38;98848.16;1697066;84;21040;-79
2022/08/06 07:43:23;;;;;;;6.37;2.87;;;;;;;25.91;44.16;98852.68;1681295;85;21009;-80
2022/08/06 07:45:51;;;;;;;4.15;2.87;;;;;;;26.03;43.69;98843.20;1655426;86;21024;-80
2022/08/06 07:48:26;;;;;;;7.58;2.98;;;;;;;26.13;43.40;98847.52;1682467;85;21048;-80
2022/08/06 07:50:54;;;;;;;5.62;3.58;;;;;;;26.27;42.81;98844.06;1675736;85;21039;-80
2022/08/06 07:53:22;;;;;;;5.60;2.90;;;;;;;26.32;43.07;98849.31;1707914;82;21024;-80
2022/08/06 07:55:48;;;;;;;4.80;2.80;;;;;;;26.47;42.56;98841.67;1725745;82;21059;-80
2022/08/06 07:58:16;;;;;;;8.78;2.65;;;;;;;26.57;42.58;98842.46;1738895;82;21039;-80
2022/08/06 08:00:44;;;;;;;6.67;3.20;;;;;;;26.69;42.36;98836.48;1721419;82;21046;-80
2022/08/06 08:08:43;;;;;;;4.60;2.70;;;;;;;27.08;41.20;98846.95;1736017;82;20967;-81
2022/08/06 08:11:13;;;;;;;6.08;2.75;;;;;;;27.15;41.01;98848.02;1718449;82;21065;-80
2022/08/06 08:13:39;;;;;;;8.10;2.90;;;;;;;27.25;40.76;98840.48;1741105;82;21284;-80
2022/08/06 08:16:09;;;;;;;6.72;2.75;;;;;;;27.33;40.19;98843.22;1729228;82;21483;-80
2022/08/06 08:18:35;;;;;;;7.12;3.08;;;;;;;27.45;39.74;98847.34;1737052;82;20972;-80
2022/08/06 08:21:03;;;;;;;3.98;2.65;;;;;;;27.53;39.02;98840.73;1734077;82;21132;-80
2022/08/06 08:23:31;;;;;;;5.22;2.67;;;;;;;27.65;40.38;98839.17;1758271;81;21001;-80
2022/08/06 08:26:01;;;;;;;7.90;2.77;;;;;;;27.82;40.13;98849.52;1760742;81;21006;-82
2022/08/06 08:28:29;;;;;;;6.45;2.65;;;;;;;27.94;39.80;98849.13;1757219;81;22557;-80
2022/08/06 08:31:01;;;;;;;9.18;2.95;;;;;;;28.03;39.41;98847.34;1750761;82;21030;-81
2022/08/06 08:33:29;;;;;;;8.93;3.30;;;;;;;28.13;39.36;98843.24;1756117;81;20979;-81
2022/08/06 08:35:56;;;;;;;6.60;3.02;;;;;;;28.24;39.26;98841.66;1748532;81;21005;-80
2022/08/06 08:38:22;;;;;;;8.88;2.85;;;;;;;28.36;39.28;98837.70;1684282;85;21056;-81
2022/08/06 08:40:51;;;;;;;6.95;2.70;;;;;;;28.46;39.14;98839.44;1760813;81;21022;-80
2022/08/06 08:43:32;;;;;;;5.53;2.80;;;;;;;28.59;38.94;98837.68;1757678;81;21090;-81
2022/08/06 08:46:02;;;;;;;6.47;2.95;;;;;;;28.72;38.19;98843.44;1759908;81;20998;-80
2022/08/06 08:48:31;;;;;;;3.87;2.70;;;;;;;28.76;38.01;98837.59;1756241;81;20994;-80
2022/08/06 08:51:00;;;;;;;6.28;2.90;;;;;;;28.88;37.81;98840.81;1751675;81;21029;-81
2022/08/06 08:53:41;;;;;;;4.42;2.62;;;;;;;28.99;38.16;98834.34;1739824;81;20990;-80
2022/08/06 08:56:09;;;;;;;6.30;2.72;;;;;;;29.11;38.15;98830.86;1760198;81;21035;-80
2022/08/06 08:58:36;;;;;;;4.10;2.62;;;;;;;29.26;37.54;98835.92;1760619;81;20982;-80
2022/08/06 09:01:08;;;;;;;4.20;2.55;;;;;;;29.37;36.82;98829.44;1754492;81;21042;-80
2022/08/06 09:03:38;;;;;;;7.33;3.08;;;;;;;29.44;37.01;98832.27;1730691;81;21052;-80
2022/08/06 09:06:06;;;;;;;5.00;3.10;;;;;;;29.56;37.02;98832.28;1758250;81;21046;-79
2022/08/06 09:08:33;;;;;;;3.90;2.60;;;;;;;29.66;36.69;98823.57;1746119;82;21048;-79
2022/08/06 09:11:00;;;;;;;5.87;3.10;;;;;;;29.75;36.24;98820.44;1757740;81;20959;-81
2022/08/06 09:13:27;;;;;;;4.80;3.00;;;;;;;29.83;36.19;98826.30;1756844;81;21491;-81
2022/08/06 09:15:54;;;;;;;3.58;2.55;;;;;;;29.91;35.58;98821.76;1754509;81;21002;-79
2022/08/06 09:18:23;;;;;;;4.65;2.85;;;;;;;29.92;35.49;98814.06;1759176;81;20993;-80
2022/08/06 09:20:50;;;;;;;5.28;2.77;;;;;;;30.04;35.50;98813.22;1751759;81;21087;-80
2022/08/06 09:23:17;;;;;;;9.08;2.90;;;;;;;30.13;34.81;98814.02;1744281;82;20991;-80
2022/08/06 09:25:49;;;;;;;4.87;2.65;;;;;;;30.21;35.67;98807.30;1746897;82;20972;-80
2022/08/06 09:28:38;;;;;;;6.60;2.72;;;;;;;30.34;34.88;98805.44;1740191;82;21015;-81
2022/08/06 09:31:17;;;;;;;6.10;3.05;;;;;;;30.41;35.08;98808.28;1747108;82;21031;-79
2022/08/06 09:34:05;;;;;;;5.33;2.92;;;;;;;30.51;35.11;98803.55;1731360;82;20999;-80
2022/08/06 09:36:45;;;;;;;6.35;2.62;;;;;;;30.58;34.59;98799.17;1734756;82;21091;-80
2022/08/06 09:39:13;;;;;;;4.08;2.50;;;;;;;30.70;34.61;98794.27;1742116;82;21036;-80
2022/08/06 09:41:48;;;;;;;4.83;2.40;;;;;;;30.86;34.58;98790.66;1729452;82;20983;-79
2022/08/06 09:44:15;;;;;;;9.63;2.42;;;;;;;30.97;33.99;98787.59;1717845;83;21562;-80
2022/08/06 09:46:46;;;;;;;4.10;2.55;;;;;;;31.04;33.78;98790.42;1730876;82;21059;-80
2022/08/06 09:49:15;;;;;;;7.90;2.60;;;;;;;31.20;33.99;98785.45;1738146;82;20955;-80
2022/08/06 09:51:43;;;;;;;4.85;2.25;;;;;;;31.35;33.56;98784.98;1747343;82;21034;-80
2022/08/06 09:54:20;;;;;;;5.22;2.50;;;;;;;31.51;32.61;98784.05;1735518;81;21019;-79
2022/08/06 09:56:57;;;;;;;5.60;2.50;;;;;;;31.58;32.72;98785.52;1735114;82;20988;-81
2022/08/06 09:59:24;;;;;;;4.47;2.70;;;;;;;31.70;32.70;98786.23;1745005;82;21486;-79
2022/08/06 10:01:51;;;;;;;3.67;2.27;;;;;;;31.86;32.36;98782.55;1718290;82;21048;-80
2022/08/06 10:04:28;;;;;;;4.05;2.45;;;;;;;32.01;31.67;98786.66;1733563;81;21042;-80
2022/08/06 10:07:04;;;;;;;3.52;2.35;;;;;;;32.10;31.25;98786.05;1741291;81;20994;-80
2022/08/06 10:09:32;;;;;;;4.15;2.62;;;;;;;32.17;30.92;98781.61;1734947;82;20998;-81
2022/08/06 10:11:59;;;;;;;3.27;2.25;;;;;;;32.25;31.13;98780.17;1726334;82;21023;-80
2022/08/06 10:14:30;;;;;;;5.17;2.27;;;;;;;32.37;30.75;98779.69;1733634;83;20991;-80
2022/08/06 10:17:16;;;;;;;5.25;2.60;;;;;;;32.45;30.97;98779.58;1729646;82;21034;-80
2022/08/06 10:19:45;;;;;;;5.85;2.55;;;;;;;32.50;30.53;98773.14;1731992;83;20987;-80
2022/08/06 10:22:15;;;;;;;5.78;2.52;;;;;;;32.56;30.43;98767.03;1728800;82;21502;-80
2022/08/06 10:24:46;;;;;;;4.40;2.42;;;;;;;32.59;29.14;98768.02;1732410;82;20971;-81
2022/08/06 10:27:22;;;;;;;4.35;2.35;;;;;;;32.64;29.73;98776.34;1674864;85;21269;-82
2022/08/06 10:29:53;;;;;;;4.83;2.05;;;;;;;32.70;29.71;98776.93;1732771;82;20988;-81
2022/08/06 10:32:34;;;;;;;6.22;2.08;;;;;;;32.86;27.62;98775.88;1694981;85;21031;-80
2022/08/06 10:35:04;;;;;;;5.37;1.95;;;;;;;32.95;27.62;98771.71;1688794;83;21081;-80
2022/08/06 10:37:38;;;;;;;4.70;1.90;;;;;;;33.05;25.79;98773.09;1698044;83;21050;-80
2022/08/06 10:40:08;;;;;;;3.27;2.10;;;;;;;33.13;26.75;98768.62;1724582;82;20987;-80
2022/08/06 10:42:34;;;;;;;4.58;2.30;;;;;;;33.15;26.68;98769.26;1740549;82;20999;-80
2022/08/06 10:45:01;;;;;;;4.53;2.10;;;;;;;33.26;26.63;98768.23;1740753;82;21055;-81
2022/08/06 10:47:29;;;;;;;5.08;2.30;;;;;;;33.38;26.07;98766.38;1693939;85;21002;-81
2022/08/06 10:49:57;;;;;;;3.20;2.40;;;;;;;33.41;26.06;98768.18;1706473;83;21115;-81
2022/08/06 10:52:24;;;;;;;3.58;2.22;;;;;;;33.39;26.01;98759.46;1718817;83;21036;-81
2022/08/06 10:54:51;;;;;;;3.58;2.40;;;;;;;33.54;26.61;98753.15;1672372;85;21095;-81
2022/08/06 10:57:20;;;;;;;5.05;2.42;;;;;;;33.68;26.09;98754.95;1724040;83;21070;-80
2022/08/06 10:59:48;;;;;;;3.30;2.40;;;;;;;33.62;26.23;98753.03;1741920;82;21018;-82
2022/08/06 11:02:39;;;;;;;3.02;2.17;;;;;;;33.62;26.34;98743.60;1711770;83;21019;-82
2022/08/06 11:05:19;;;;;;;5.78;2.35;;;;;;;33.72;26.33;98747.30;1711974;82;21001;-82
2022/08/06 11:08:17;;;;;;;4.35;2.50;;;;;;;33.82;26.46;98740.55;1739647;82;21005;-80
2022/08/06 11:11:06;;;;;;;3.67;2.00;;;;;;;33.96;25.74;98744.14;1715759;82;21055;-80
2022/08/06 11:14:09;;;;;;;4.03;2.52;;;;;;;34.07;26.26;98740.07;1738569;82;21466;-82
2022/08/06 11:16:37;;;;;;;3.98;2.40;;;;;;;34.27;25.85;98742.38;1723460;82;20975;-82
2022/08/06 11:19:07;;;;;;;5.03;2.40;;;;;;;34.47;25.62;98739.77;1710944;83;21305;-82
2022/08/06 11:21:47;;;;;;;5.17;2.58;;;;;;;34.62;25.21;98739.64;1714237;83;20976;-82
2022/08/06 11:24:15;;;;;;;4.17;2.70;;;;;;;34.75;25.64;98735.34;1715415;83;21053;-82
2022/08/06 11:26:44;;;;;;;7.10;2.60;;;;;;;34.91;25.28;98735.48;1711872;83;20999;-82
2022/08/06 11:29:15;;;;;;;3.72;2.37;;;;;;;35.00;24.73;98728.86;1721032;83;21031;-82
2022/08/06 11:31:47;;;;;;;4.22;2.60;;;;;;;35.10;24.56;98731.13;1713140;83;21064;-81
2022/08/06 11:34:17;;;;;;;4.12;2.55;;;;;;;35.18;25.26;98728.30;1716177;83;21035;-82
2022/08/06 11:36:53;;;;;;;5.37;2.42;;;;;;;35.34;24.74;98732.46;1701271;83;21124;-82
2022/08/06 11:39:21;;;;;;;3.58;2.37;;;;;;;35.42;24.68;98727.67;1714165;83;21059;-81
2022/08/06 11:41:55;;;;;;;4.97;2.50;;;;;;;35.46;24.39;98724.03;1696958;83;21016;-82
2022/08/06 11:44:34;;;;;;;3.27;2.60;;;;;;;35.55;24.52;98724.11;1714707;83;21024;-82
2022/08/06 11:47:20;;;;;;;3.58;2.60;;;;;;;35.61;24.40;98721.09;1710361;83;21030;-80
2022/08/06 11:49:50;;;;;;;4.22;2.42;;;;;;;35.65;23.92;98720.98;1718070;83;21063;-80
2022/08/06 11:52:39;;;;;;;4.53;2.60;;;;;;;35.75;24.12;98721.42;1718260;83;21106;-81
2022/08/06 11:55:13;;;;;;;4.90;2.52;;;;;;;35.83;23.96;98714.96;1710190;83;21016;-81
2022/08/06 11:57:40;;;;;;;3.80;2.47;;;;;;;35.82;22.56;98710.61;1706914;83;21010;-81
2022/08/06 12:00:14;;;;;;;3.87;2.65;;;;;;;35.80;22.84;98708.11;1711460;83;21488;-81